PWSweather.com
Personal Weather Stations
Station Observations
ITROMSTR4
From Fagereng Towards West Sandnessundet, TromsoeNO 9013

From Fagereng Towards West SandnessundetTromsoeNO 9013

Lat: 69.644853, Lon: 18.908345

Elevation: 150

Station Type: WH-1080

http://www.hugooien.no/?go=weather

Latest ConditionsUpdated 11:55:00 PM GMT+01:01 Wednesday, Aug 15, 2018
Currently Today's Max Today's Min Today's Average
Temperature 47.8°F8.8°C 65.5°F18.6°C 43.3°F6.3°C 54.7°F12.6°C
Dew Point 45.6°F7.6°C 52.1°F11.2°C 42.8°F6.0°C 46.1°F7.8°C
Winds Calm Calm Calm -Calm - - Calm Calm
Wind Gusts -- -- - -
Humidity 92% 99% 49% 75%
Pressure 29.42 in996.3 mb 29.53 in1000.0 mb 29.41 in995.9 mb -
Hour Temp Dew Point Humidity Winds Wind Gusts Pressure Precip Precip Rate Daily Precip Total
11:55 PM 47.8°F8.8°C 45.6°F7.6°C 92% Calm Calm -- 29.42 in996.3 mb 7.25 in184.2 mm 0.00 in0.0 mm 168.40 in4277.4 mm
11:50 PM 48.0°F8.9°C 45.5°F7.5°C 91% Calm Calm -- 29.42 in996.3 mb 15.41 in391.4 mm 0.00 in0.0 mm 168.40 in4277.4 mm
11:45 PM 48.0°F8.9°C 45.5°F7.5°C 91% Calm Calm -- 29.43 in996.6 mb 15.41 in391.4 mm 0.00 in0.0 mm 168.40 in4277.4 mm
11:40 PM 48.0°F8.9°C 45.5°F7.5°C 91% Calm Calm -- 29.42 in996.3 mb 15.41 in391.4 mm 0.00 in0.0 mm 168.40 in4277.4 mm
11:35 PM 48.7°F9.3°C 45.9°F7.7°C 90% Calm Calm -- 29.42 in996.3 mb 15.41 in391.4 mm 0.00 in0.0 mm 168.40 in4277.4 mm
11:30 PM 49.5°F9.7°C 45.8°F7.7°C 87% Calm Calm -- 29.42 in996.3 mb 15.41 in391.4 mm 0.00 in0.0 mm 168.40 in4277.4 mm
11:25 PM 49.5°F9.7°C 45.8°F7.7°C 87% Calm Calm -- 29.42 in996.3 mb 17.27 in438.7 mm 0.00 in0.0 mm 168.40 in4277.4 mm
11:20 PM 49.5°F9.7°C 45.8°F7.7°C 87% Calm Calm -- 29.43 in996.6 mb 17.27 in438.7 mm 43.68 in1109.5 mm 168.40 in4277.4 mm
11:15 PM 49.8°F9.9°C 45.8°F7.7°C 86% Calm Calm -- 29.43 in996.6 mb 13.63 in346.2 mm 0.00 in0.0 mm 164.76 in4184.9 mm
11:10 PM 50.2°F10.1°C 46.2°F7.9°C 86% Calm Calm -- 29.43 in996.6 mb 13.63 in346.2 mm 37.08 in941.8 mm 164.76 in4184.9 mm
11:05 PM 50.0°F10.0°C 45.7°F7.6°C 85% Calm Calm -- 29.43 in996.6 mb 10.54 in267.7 mm 0.00 in0.0 mm 161.67 in4106.4 mm
11:00 PM 50.0°F10.0°C 45.7°F7.6°C 85% Calm Calm -- 29.42 in996.3 mb 11.27 in286.3 mm 0.57 in14.5 mm 161.67 in4106.4 mm
10:55 PM 50.0°F10.0°C 45.7°F7.6°C 85% Calm Calm -- 29.42 in996.3 mb 10.75 in273.1 mm 97.44 in2475.0 mm 24.31 in617.5 mm
10:50 PM 50.2°F10.1°C 45.5°F7.5°C 84% Calm Calm -- 29.42 in996.3 mb 2.63 in66.8 mm 0.00 in0.0 mm 24.31 in617.5 mm
10:45 PM 50.2°F10.1°C 45.5°F7.5°C 84% Calm Calm -- 29.42 in996.3 mb 6.89 in175.0 mm 0.00 in0.0 mm 24.31 in617.5 mm
10:40 PM 50.2°F10.1°C 45.5°F7.5°C 84% Calm Calm -- 29.42 in996.3 mb 6.89 in175.0 mm 0.00 in0.0 mm 24.31 in617.5 mm
10:35 PM 50.2°F10.1°C 45.5°F7.5°C 84% Calm Calm -- 29.42 in996.3 mb 11.07 in281.2 mm 0.00 in0.0 mm 24.31 in617.5 mm
10:30 PM 50.2°F10.1°C 45.5°F7.5°C 84% Calm Calm -- 29.42 in996.3 mb 11.07 in281.2 mm 0.00 in0.0 mm 24.31 in617.5 mm
10:25 PM 50.5°F10.3°C 44.9°F7.2°C 81% Calm Calm -- 29.42 in996.3 mb 11.99 in304.5 mm 0.00 in0.0 mm 24.31 in617.5 mm
10:20 PM 50.5°F10.3°C 44.9°F7.2°C 81% Calm Calm -- 29.42 in996.3 mb 11.99 in304.5 mm 0.00 in0.0 mm 24.31 in617.5 mm
10:15 PM 50.5°F10.3°C 44.9°F7.2°C 81% Calm Calm -- 29.42 in996.3 mb 14.22 in361.2 mm 0.00 in0.0 mm 24.31 in617.5 mm
10:10 PM 50.5°F10.3°C 44.9°F7.2°C 81% Calm Calm -- 29.42 in996.3 mb 20.06 in509.5 mm 0.00 in0.0 mm 24.31 in617.5 mm
10:05 PM 50.5°F10.3°C 44.9°F7.2°C 81% Calm Calm -- 29.42 in996.3 mb 20.06 in509.5 mm 0.00 in0.0 mm 24.31 in617.5 mm
10:00 PM 50.9°F10.5°C 45.6°F7.6°C 82% Calm Calm -- 29.41 in995.9 mb 22.76 in578.1 mm 0.00 in0.0 mm 24.31 in617.5 mm
09:55 PM 50.9°F10.5°C 45.6°F7.6°C 82% Calm Calm -- 29.42 in996.3 mb 22.88 in581.2 mm 0.00 in0.0 mm 24.31 in617.5 mm
09:50 PM 51.3°F10.7°C 46.0°F7.8°C 82% Calm Calm -- 29.42 in996.3 mb 27.31 in693.7 mm 48.00 in1219.2 mm 24.00 in609.6 mm
09:45 PM 51.3°F10.7°C 46.0°F7.8°C 82% Calm Calm -- 29.42 in996.3 mb 23.31 in592.1 mm 9.84 in249.9 mm 24.00 in609.6 mm
09:40 PM 51.3°F10.7°C 46.0°F7.8°C 82% Calm Calm -- 29.43 in996.6 mb 22.49 in571.2 mm 40.32 in1024.1 mm 24.00 in609.6 mm
09:35 PM 50.9°F10.5°C 45.3°F7.4°C 81% Calm Calm -- 29.42 in996.3 mb 19.13 in485.9 mm 30.00 in762.0 mm 24.00 in609.6 mm
09:30 PM 50.7°F10.4°C 45.1°F7.3°C 81% Calm Calm -- 29.42 in996.3 mb 16.63 in422.4 mm 3.24 in82.3 mm 24.00 in609.6 mm
09:25 PM 51.1°F10.6°C 45.1°F7.3°C 80% Calm Calm -- 29.42 in996.3 mb 16.36 in415.5 mm 0.00 in0.0 mm 23.73 in602.7 mm
09:20 PM 51.6°F10.9°C 46.0°F7.8°C 81% Calm Calm -- 29.43 in996.6 mb 16.36 in415.5 mm 26.76 in679.7 mm 23.73 in602.7 mm
09:15 PM 52.2°F11.2°C 46.2°F7.9°C 80% Calm Calm -- 29.44 in997.0 mb 14.13 in358.9 mm 64.08 in1627.6 mm 23.73 in602.7 mm
09:10 PM 52.0°F11.1°C 45.7°F7.6°C 79% Calm Calm -- 29.42 in996.3 mb 8.79 in223.3 mm 0.00 in0.0 mm 23.73 in602.7 mm
09:05 PM 52.0°F11.1°C 45.7°F7.6°C 79% Calm Calm -- 29.43 in996.6 mb 10.19 in258.8 mm 0.00 in0.0 mm 23.73 in602.7 mm
09:00 PM 52.2°F11.2°C 45.9°F7.7°C 79% Calm Calm -- 29.43 in996.6 mb 10.94 in277.9 mm 0.00 in0.0 mm 23.73 in602.7 mm
08:55 PM 52.3°F11.3°C 46.0°F7.8°C 79% Calm Calm -- 29.43 in996.6 mb 14.50 in368.3 mm 0.00 in0.0 mm 23.61 in599.7 mm
08:50 PM 52.3°F11.3°C 45.4°F7.4°C 77% Calm Calm -- 29.44 in997.0 mb 15.25 in387.4 mm 0.00 in0.0 mm 23.61 in599.7 mm
08:45 PM 52.3°F11.3°C 45.4°F7.4°C 77% Calm Calm -- 29.43 in996.6 mb 19.81 in503.2 mm 0.00 in0.0 mm 23.61 in599.7 mm
08:40 PM 52.7°F11.5°C 45.7°F7.6°C 77% Calm Calm -- 29.43 in996.6 mb 23.88 in606.6 mm 0.00 in0.0 mm 23.61 in599.7 mm
08:35 PM 53.1°F11.7°C 45.4°F7.4°C 75% Calm Calm -- 29.42 in996.3 mb 29.22 in742.2 mm 0.00 in0.0 mm 23.61 in599.7 mm
08:30 PM 53.1°F11.7°C 45.4°F7.4°C 75% Calm Calm -- 29.43 in996.6 mb 35.42 in899.7 mm 0.00 in0.0 mm 23.61 in599.7 mm
08:25 PM 53.4°F11.9°C 45.7°F7.6°C 75% Calm Calm -- 29.43 in996.6 mb 39.01 in990.9 mm 0.00 in0.0 mm 23.61 in599.7 mm
08:20 PM 53.8°F12.1°C 45.7°F7.6°C 74% Calm Calm -- 29.42 in996.3 mb 39.01 in990.9 mm 0.00 in0.0 mm 23.61 in599.7 mm
08:15 PM 54.0°F12.2°C 45.5°F7.5°C 73% Calm Calm -- 29.43 in996.6 mb 39.01 in990.9 mm 0.00 in0.0 mm 23.61 in599.7 mm
08:10 PM 54.5°F12.5°C 46.0°F7.8°C 73% Calm Calm -- 29.44 in997.0 mb 39.01 in990.9 mm 0.00 in0.0 mm 23.10 in586.7 mm
08:05 PM 54.9°F12.7°C 46.0°F7.8°C 72% Calm Calm -- 29.43 in996.6 mb 39.01 in990.9 mm 0.00 in0.0 mm 22.68 in576.1 mm
08:00 PM 55.4°F13.0°C 46.9°F8.3°C 73% Calm Calm -- 29.42 in996.3 mb 39.01 in990.9 mm 0.00 in0.0 mm 22.68 in576.1 mm
07:55 PM 55.8°F13.2°C 46.9°F8.3°C 72% Calm Calm -- 29.43 in996.6 mb 39.01 in990.9 mm 0.00 in0.0 mm 22.68 in576.1 mm
07:50 PM 56.3°F13.5°C 47.4°F8.6°C 72% Calm Calm -- 29.42 in996.3 mb 39.01 in990.9 mm 0.00 in0.0 mm 22.68 in576.1 mm
07:45 PM 56.7°F13.7°C 47.7°F8.7°C 72% Calm Calm -- 29.42 in996.3 mb 39.01 in990.9 mm 0.00 in0.0 mm 22.68 in576.1 mm
07:40 PM 57.2°F14.0°C 47.5°F8.6°C 70% Calm Calm -- 29.42 in996.3 mb 39.01 in990.9 mm 0.00 in0.0 mm 22.68 in576.1 mm
07:35 PM 57.4°F14.1°C 46.9°F8.3°C 68% Calm Calm -- 29.42 in996.3 mb 39.01 in990.9 mm 0.00 in0.0 mm 22.68 in576.1 mm
07:30 PM 59.2°F15.1°C 47.0°F8.3°C 64% Calm Calm -- 29.42 in996.3 mb 39.01 in990.9 mm 0.00 in0.0 mm 22.68 in576.1 mm
07:25 PM 60.3°F15.7°C 48.0°F8.9°C 64% Calm Calm -- 29.43 in996.6 mb 39.01 in990.9 mm 0.00 in0.0 mm 22.33 in567.2 mm
07:20 PM 60.8°F16.0°C 47.7°F8.7°C 62% Calm Calm -- 29.43 in996.6 mb 39.01 in990.9 mm 0.00 in0.0 mm 22.06 in560.3 mm
07:15 PM 61.0°F16.1°C 47.5°F8.6°C 61% Calm Calm -- 29.43 in996.6 mb 39.01 in990.9 mm 0.00 in0.0 mm 21.76 in552.7 mm
07:10 PM 61.2°F16.2°C 47.2°F8.4°C 60% Calm Calm -- 29.43 in996.6 mb 39.01 in990.9 mm 0.00 in0.0 mm 21.76 in552.7 mm
07:05 PM 61.5°F16.4°C 47.5°F8.6°C 60% Calm Calm -- 29.43 in996.6 mb 39.01 in990.9 mm 0.00 in0.0 mm 21.48 in545.6 mm
07:00 PM 61.9°F16.6°C 47.9°F8.8°C 60% Calm Calm -- 29.43 in996.6 mb 39.01 in990.9 mm 0.00 in0.0 mm 21.48 in545.6 mm
06:55 PM 62.1°F16.7°C 47.6°F8.7°C 59% Calm Calm -- 29.42 in996.3 mb 39.01 in990.9 mm 0.00 in0.0 mm 21.18 in538.0 mm
06:50 PM 62.6°F17.0°C 47.6°F8.7°C 58% Calm Calm -- 29.42 in996.3 mb 39.01 in990.9 mm 0.00 in0.0 mm 21.18 in538.0 mm
06:45 PM 62.4°F16.9°C 47.9°F8.8°C 59% Calm Calm -- 29.43 in996.6 mb 39.01 in990.9 mm 0.00 in0.0 mm 21.18 in538.0 mm
06:40 PM 62.4°F16.9°C 47.9°F8.8°C 59% Calm Calm -- 29.42 in996.3 mb 39.01 in990.9 mm 0.00 in0.0 mm 21.18 in538.0 mm
06:35 PM 62.6°F17.0°C 47.2°F8.4°C 57% Calm Calm -- 29.43 in996.6 mb 39.01 in990.9 mm 0.00 in0.0 mm 21.18 in538.0 mm
06:30 PM 63.9°F17.7°C 46.9°F8.3°C 54% Calm Calm -- 29.42 in996.3 mb 39.01 in990.9 mm 0.00 in0.0 mm 20.86 in529.8 mm
06:25 PM 64.4°F18.0°C 47.9°F8.8°C 55% Calm Calm -- 29.42 in996.3 mb 39.01 in990.9 mm 0.00 in0.0 mm 20.52 in521.2 mm
06:20 PM 63.5°F17.5°C 48.5°F9.2°C 58% Calm Calm -- 29.42 in996.3 mb 39.01 in990.9 mm 0.00 in0.0 mm 20.22 in513.6 mm
06:15 PM 62.8°F17.1°C 48.3°F9.1°C 59% Calm Calm -- 29.42 in996.3 mb 39.01 in990.9 mm 0.00 in0.0 mm 19.96 in507.0 mm
06:10 PM 61.9°F16.6°C 48.3°F9.1°C 61% Calm Calm -- 29.42 in996.3 mb 39.01 in990.9 mm 0.00 in0.0 mm 19.96 in507.0 mm
06:05 PM 61.9°F16.6°C 47.9°F8.8°C 60% Calm Calm -- 29.42 in996.3 mb 39.01 in990.9 mm 40.56 in1030.2 mm 19.96 in507.0 mm
06:00 PM 61.9°F16.6°C 48.7°F9.3°C 62% Calm Calm -- 29.43 in996.6 mb 35.63 in905.0 mm 1.64 in41.7 mm 19.96 in507.0 mm
05:55 PM 60.6°F15.9°C 48.8°F9.3°C 65% Calm Calm -- 29.43 in996.6 mb 34.13 in866.9 mm 0.00 in0.0 mm 19.96 in507.0 mm
05:50 PM 60.3°F15.7°C 48.0°F8.9°C 64% Calm Calm -- 29.43 in996.6 mb 35.72 in907.3 mm 14.64 in371.9 mm 19.96 in507.0 mm
05:45 PM 60.8°F16.0°C 47.7°F8.7°C 62% Calm Calm -- 29.43 in996.6 mb 34.50 in876.3 mm 0.12 in3.0 mm 19.96 in507.0 mm
05:40 PM 61.0°F16.1°C 47.5°F8.6°C 61% Calm Calm -- 29.43 in996.6 mb 34.49 in876.0 mm 0.00 in0.0 mm 19.51 in495.6 mm
05:35 PM 61.5°F16.4°C 47.5°F8.6°C 60% Calm Calm -- 29.43 in996.6 mb 36.11 in917.2 mm 0.00 in0.0 mm 19.25 in489.0 mm
05:30 PM 62.8°F17.1°C 47.8°F8.8°C 58% Calm Calm -- 29.43 in996.6 mb 37.31 in947.7 mm 0.00 in0.0 mm 19.02 in483.1 mm
05:25 PM 62.2°F16.8°C 49.9°F9.9°C 64% Calm Calm -- 29.43 in996.6 mb 38.95 in989.3 mm 467.40 in11872.0 mm 19.02 in483.1 mm
05:20 PM 59.9°F15.5°C 48.9°F9.4°C 67% Calm Calm -- 29.42 in996.3 mb 0.00 in0.0 mm 0.00 in0.0 mm 19.02 in483.1 mm
05:15 PM 59.5°F15.3°C 49.4°F9.7°C 69% Calm Calm -- 29.43 in996.6 mb 0.00 in0.0 mm 0.00 in0.0 mm 19.02 in483.1 mm
05:10 PM 59.2°F15.1°C 49.4°F9.7°C 70% Calm Calm -- 29.42 in996.3 mb 0.00 in0.0 mm 0.00 in0.0 mm 18.48 in469.4 mm
05:05 PM 58.8°F14.9°C 49.4°F9.7°C 71% Calm Calm -- 29.42 in996.3 mb 0.00 in0.0 mm 0.00 in0.0 mm 18.07 in459.0 mm
05:00 PM 58.5°F14.7°C 49.1°F9.5°C 71% Calm Calm -- 29.43 in996.6 mb 0.00 in0.0 mm 0.00 in0.0 mm 17.01 in432.1 mm
04:55 PM 58.5°F14.7°C 49.1°F9.5°C 71% Calm Calm -- 29.42 in996.3 mb 0.00 in0.0 mm 0.00 in0.0 mm 16.84 in427.7 mm
04:50 PM 58.6°F14.8°C 49.3°F9.6°C 71% Calm Calm -- 29.42 in996.3 mb 0.00 in0.0 mm 0.00 in0.0 mm 16.84 in427.7 mm
04:45 PM 57.6°F14.2°C 48.2°F9.0°C 71% Calm Calm -- 29.42 in996.3 mb 0.00 in0.0 mm 0.00 in0.0 mm 16.84 in427.7 mm
04:40 PM 57.6°F14.2°C 48.2°F9.0°C 71% Calm Calm -- 29.43 in996.6 mb 0.00 in0.0 mm 0.00 in0.0 mm 16.84 in427.7 mm
04:35 PM 58.6°F14.8°C 48.9°F9.4°C 70% Calm Calm -- 29.43 in996.6 mb 0.00 in0.0 mm 0.00 in0.0 mm 16.84 in427.7 mm
04:30 PM 58.6°F14.8°C 48.1°F8.9°C 68% Calm Calm -- 29.42 in996.3 mb 0.00 in0.0 mm 0.00 in0.0 mm 16.54 in420.1 mm
04:25 PM 58.8°F14.9°C 47.9°F8.8°C 67% Calm Calm -- 29.42 in996.3 mb 0.00 in0.0 mm 0.00 in0.0 mm 16.54 in420.1 mm
04:20 PM 59.7°F15.4°C 47.5°F8.6°C 64% Calm Calm -- 29.42 in996.3 mb 0.00 in0.0 mm 0.00 in0.0 mm 16.38 in416.1 mm
04:15 PM 60.4°F15.8°C 47.8°F8.8°C 63% Calm Calm -- 29.42 in996.3 mb 0.00 in0.0 mm 0.00 in0.0 mm 16.02 in406.9 mm
04:10 PM 61.0°F16.1°C 48.3°F9.1°C 63% Calm Calm -- 29.43 in996.6 mb 0.00 in0.0 mm 0.00 in0.0 mm 16.02 in406.9 mm
04:05 PM 60.8°F16.0°C 48.1°F8.9°C 63% Calm Calm -- 29.43 in996.6 mb 0.00 in0.0 mm 0.00 in0.0 mm 15.37 in390.4 mm
04:00 PM 61.0°F16.1°C 47.9°F8.8°C 62% Calm Calm -- 29.42 in996.3 mb 0.00 in0.0 mm 0.00 in0.0 mm 15.14 in384.6 mm
03:55 PM 61.5°F16.4°C 47.5°F8.6°C 60% Calm Calm -- 29.42 in996.3 mb 0.00 in0.0 mm 0.00 in0.0 mm 13.95 in354.3 mm
03:50 PM 62.6°F17.0°C 47.6°F8.7°C 58% Calm Calm -- 29.43 in996.6 mb 0.00 in0.0 mm 0.00 in0.0 mm 13.95 in354.3 mm
03:45 PM 63.1°F17.3°C 47.2°F8.4°C 56% Calm Calm -- 29.42 in996.3 mb 0.00 in0.0 mm 0.00 in0.0 mm 13.95 in354.3 mm
03:40 PM 64.6°F18.1°C 47.6°F8.7°C 54% Calm Calm -- 29.43 in996.6 mb 0.00 in0.0 mm 0.00 in0.0 mm 13.95 in354.3 mm
03:35 PM 64.4°F18.0°C 48.4°F9.1°C 56% Calm Calm -- 29.43 in996.6 mb 0.00 in0.0 mm 0.00 in0.0 mm 13.95 in354.3 mm
03:30 PM 63.3°F17.4°C 47.8°F8.8°C 57% Calm Calm -- 29.43 in996.6 mb 0.00 in0.0 mm 0.00 in0.0 mm 13.95 in354.3 mm
03:25 PM 63.5°F17.5°C 48.0°F8.9°C 57% Calm Calm -- 29.42 in996.3 mb 0.00 in0.0 mm 0.00 in0.0 mm 13.95 in354.3 mm
03:20 PM 63.0°F17.2°C 47.0°F8.3°C 56% Calm Calm -- 29.42 in996.3 mb 0.00 in0.0 mm 0.00 in0.0 mm 13.95 in354.3 mm
03:15 PM 64.4°F18.0°C 46.9°F8.3°C 53% Calm Calm -- 29.43 in996.6 mb 0.00 in0.0 mm 0.00 in0.0 mm 13.95 in354.3 mm
03:10 PM 65.1°F18.4°C 46.6°F8.1°C 51% Calm Calm -- 29.43 in996.6 mb 0.00 in0.0 mm 0.00 in0.0 mm 13.95 in354.3 mm
03:05 PM 65.3°F18.5°C 45.7°F7.6°C 49% Calm Calm -- 29.43 in996.6 mb 0.00 in0.0 mm 0.00 in0.0 mm 13.95 in354.3 mm
03:00 PM 65.5°F18.6°C 47.4°F8.6°C 52% Calm Calm -- 29.42 in996.3 mb 0.00 in0.0 mm 0.00 in0.0 mm 13.95 in354.3 mm
02:55 PM 64.4°F18.0°C 46.4°F8.0°C 52% Calm Calm -- 29.43 in996.6 mb 0.00 in0.0 mm 0.00 in0.0 mm 13.95 in354.3 mm
02:50 PM 64.4°F18.0°C 45.9°F7.7°C 51% Calm Calm -- 29.43 in996.6 mb 0.00 in0.0 mm 0.00 in0.0 mm 13.95 in354.3 mm
02:45 PM 64.6°F18.1°C 46.1°F7.8°C 51% Calm Calm -- 29.43 in996.6 mb 0.00 in0.0 mm 0.00 in0.0 mm 13.95 in354.3 mm
02:40 PM 63.9°F17.7°C 45.4°F7.4°C 51% Calm Calm -- 29.43 in996.6 mb 0.00 in0.0 mm 0.00 in0.0 mm 13.95 in354.3 mm
02:35 PM 63.3°F17.4°C 44.9°F7.2°C 51% Calm Calm -- 29.44 in997.0 mb 0.00 in0.0 mm 0.00 in0.0 mm 13.95 in354.3 mm
02:30 PM 64.0°F17.8°C 45.0°F7.2°C 50% Calm Calm -- 29.43 in996.6 mb 0.00 in0.0 mm 0.00 in0.0 mm 13.95 in354.3 mm
02:25 PM 64.6°F18.1°C 46.6°F8.1°C 52% Calm Calm -- 29.43 in996.6 mb 0.00 in0.0 mm 0.00 in0.0 mm 13.95 in354.3 mm
02:20 PM 64.2°F17.9°C 45.7°F7.6°C 51% Calm Calm -- 29.43 in996.6 mb 0.00 in0.0 mm 0.00 in0.0 mm 13.95 in354.3 mm
02:15 PM 63.9°F17.7°C 46.4°F8.0°C 53% Calm Calm -- 29.44 in997.0 mb 0.00 in0.0 mm 0.00 in0.0 mm 13.94 in354.1 mm
02:10 PM 63.3°F17.4°C 45.9°F7.7°C 53% Calm Calm -- 29.44 in997.0 mb 0.00 in0.0 mm 0.00 in0.0 mm 13.94 in354.1 mm
02:05 PM 63.5°F17.5°C 46.6°F8.1°C 54% Calm Calm -- 29.44 in997.0 mb 0.00 in0.0 mm 0.00 in0.0 mm 13.94 in354.1 mm
02:00 PM 64.2°F17.9°C 45.2°F7.3°C 50% Calm Calm -- 29.44 in997.0 mb 0.00 in0.0 mm 0.00 in0.0 mm 13.94 in354.1 mm
01:55 PM 64.0°F17.8°C 46.6°F8.1°C 53% Calm Calm -- 29.44 in997.0 mb 0.00 in0.0 mm 0.00 in0.0 mm 13.94 in354.1 mm
01:50 PM 63.3°F17.4°C 45.4°F7.4°C 52% Calm Calm -- 29.44 in997.0 mb 0.00 in0.0 mm 0.00 in0.0 mm 13.94 in354.1 mm
01:45 PM 64.0°F17.8°C 46.1°F7.8°C 52% Calm Calm -- 29.44 in997.0 mb 0.00 in0.0 mm 0.00 in0.0 mm 13.94 in354.1 mm
01:40 PM 64.2°F17.9°C 46.2°F7.9°C 52% Calm Calm -- 29.44 in997.0 mb 0.00 in0.0 mm 0.00 in0.0 mm 13.94 in354.1 mm
01:35 PM 63.5°F17.5°C 46.1°F7.8°C 53% Calm Calm -- 29.44 in997.0 mb 0.00 in0.0 mm 0.00 in0.0 mm 13.94 in354.1 mm
01:30 PM 63.5°F17.5°C 45.6°F7.6°C 52% Calm Calm -- 29.44 in997.0 mb 0.00 in0.0 mm 0.00 in0.0 mm 13.94 in354.1 mm
01:25 PM 63.0°F17.2°C 46.1°F7.8°C 54% Calm Calm -- 29.44 in997.0 mb 0.00 in0.0 mm 0.00 in0.0 mm 13.94 in354.1 mm
01:20 PM 62.6°F17.0°C 44.7°F7.1°C 52% Calm Calm -- 29.44 in997.0 mb 0.00 in0.0 mm 0.00 in0.0 mm 13.94 in354.1 mm
01:15 PM 63.3°F17.4°C 45.9°F7.7°C 53% Calm Calm -- 29.44 in997.0 mb 0.00 in0.0 mm 0.00 in0.0 mm 13.94 in354.1 mm
01:10 PM 63.5°F17.5°C 45.1°F7.3°C 51% Calm Calm -- 29.45 in997.3 mb 0.00 in0.0 mm 0.00 in0.0 mm 13.94 in354.1 mm
01:05 PM 63.7°F17.6°C 46.2°F7.9°C 53% Calm Calm -- 29.45 in997.3 mb 0.00 in0.0 mm 0.00 in0.0 mm 13.94 in354.1 mm
01:00 PM 62.8°F17.1°C 44.9°F7.2°C 52% Calm Calm -- 29.45 in997.3 mb 0.00 in0.0 mm 0.00 in0.0 mm 13.94 in354.1 mm
12:55 PM 62.4°F16.9°C 46.1°F7.8°C 55% Calm Calm -- 29.44 in997.0 mb 0.00 in0.0 mm 0.00 in0.0 mm 13.94 in354.1 mm
12:50 PM 61.9°F16.6°C 45.6°F7.6°C 55% Calm Calm -- 29.44 in997.0 mb 0.00 in0.0 mm 0.00 in0.0 mm 13.94 in354.1 mm
12:45 PM 62.4°F16.9°C 46.1°F7.8°C 55% Calm Calm -- 29.45 in997.3 mb 0.00 in0.0 mm 0.00 in0.0 mm 13.94 in354.1 mm
12:40 PM 62.6°F17.0°C 45.2°F7.3°C 53% Calm Calm -- 29.45 in997.3 mb 0.00 in0.0 mm 0.00 in0.0 mm 13.94 in354.1 mm
12:35 PM 62.4°F16.9°C 47.0°F8.3°C 57% Calm Calm -- 29.45 in997.3 mb 0.00 in0.0 mm 0.00 in0.0 mm 13.94 in354.1 mm
12:30 PM 62.4°F16.9°C 46.1°F7.8°C 55% Calm Calm -- 29.45 in997.3 mb 0.00 in0.0 mm 0.00 in0.0 mm 13.94 in354.1 mm
12:25 PM 62.8°F17.1°C 46.4°F8.0°C 55% Calm Calm -- 29.44 in997.0 mb 0.00 in0.0 mm 0.00 in0.0 mm 13.94 in354.1 mm
12:20 PM 61.9°F16.6°C 46.5°F8.1°C 57% Calm Calm -- 29.45 in997.3 mb 0.00 in0.0 mm 0.00 in0.0 mm 13.94 in354.1 mm
12:15 PM 63.1°F17.3°C 46.2°F7.9°C 54% Calm Calm -- 29.45 in997.3 mb 0.00 in0.0 mm 0.00 in0.0 mm 13.94 in354.1 mm
12:10 PM 62.6°F17.0°C 46.2°F7.9°C 55% Calm Calm -- 29.44 in997.0 mb 0.00 in0.0 mm 0.00 in0.0 mm 13.94 in354.1 mm
12:05 PM 62.1°F16.7°C 46.2°F7.9°C 56% Calm Calm -- 29.45 in997.3 mb 0.00 in0.0 mm 0.00 in0.0 mm 13.94 in354.1 mm
12:00 PM 62.2°F16.8°C 45.9°F7.7°C 55% Calm Calm -- 29.45 in997.3 mb 0.00 in0.0 mm 0.00 in0.0 mm 13.94 in354.1 mm
11:55 AM 62.1°F16.7°C 45.7°F7.6°C 55% Calm Calm -- 29.45 in997.3 mb 0.00 in0.0 mm 0.00 in0.0 mm 13.94 in354.1 mm
11:50 AM 62.4°F16.9°C 46.5°F8.1°C 56% Calm Calm -- 29.45 in997.3 mb 0.00 in0.0 mm 0.00 in0.0 mm 13.94 in354.1 mm
11:45 AM 61.5°F16.4°C 47.1°F8.4°C 59% Calm Calm -- 29.45 in997.3 mb 0.00 in0.0 mm 0.00 in0.0 mm 13.94 in354.1 mm
11:40 AM 60.6°F15.9°C 46.7°F8.2°C 60% Calm Calm -- 29.45 in997.3 mb 0.00 in0.0 mm 0.00 in0.0 mm 13.94 in354.1 mm
11:35 AM 59.9°F15.5°C 45.1°F7.3°C 58% Calm Calm -- 29.46 in997.6 mb 0.00 in0.0 mm 0.00 in0.0 mm 13.94 in354.1 mm
11:30 AM 60.6°F15.9°C 46.2°F7.9°C 59% Calm Calm -- 29.46 in997.6 mb 39.21 in995.9 mm 0.00 in0.0 mm 13.94 in354.1 mm
11:25 AM 60.4°F15.8°C 45.1°F7.3°C 57% Calm Calm -- 29.45 in997.3 mb 39.21 in995.9 mm 0.00 in0.0 mm 13.94 in354.1 mm
11:20 AM 61.7°F16.5°C 44.9°F7.2°C 54% Calm Calm -- 29.45 in997.3 mb 39.21 in995.9 mm 0.00 in0.0 mm 13.94 in354.1 mm
11:15 AM 62.2°F16.8°C 45.4°F7.4°C 54% Calm Calm -- 29.45 in997.3 mb 39.21 in995.9 mm 0.00 in0.0 mm 13.94 in354.1 mm
11:10 AM 62.8°F17.1°C 45.4°F7.4°C 53% Calm Calm -- 29.46 in997.6 mb 39.21 in995.9 mm 0.00 in0.0 mm 13.94 in354.1 mm
11:05 AM 62.4°F16.9°C 46.5°F8.1°C 56% Calm Calm -- 29.46 in997.6 mb 39.21 in995.9 mm 0.00 in0.0 mm 13.94 in354.1 mm
11:00 AM 61.7°F16.5°C 45.4°F7.4°C 55% Calm Calm -- 29.46 in997.6 mb 39.21 in995.9 mm 0.00 in0.0 mm 13.84 in351.5 mm
10:55 AM 61.9°F16.6°C 45.6°F7.6°C 55% Calm Calm -- 29.45 in997.3 mb 39.21 in995.9 mm 0.00 in0.0 mm 13.84 in351.5 mm
10:50 AM 61.9°F16.6°C 45.6°F7.6°C 55% Calm Calm -- 29.46 in997.6 mb 39.21 in995.9 mm 0.00 in0.0 mm 13.84 in351.5 mm
10:45 AM 62.2°F16.8°C 47.7°F8.7°C 59% Calm Calm -- 29.46 in997.6 mb 39.21 in995.9 mm 0.00 in0.0 mm 13.84 in351.5 mm
10:40 AM 61.9°F16.6°C 47.9°F8.8°C 60% Calm Calm -- 29.46 in997.6 mb 39.21 in995.9 mm 0.00 in0.0 mm 13.63 in346.2 mm
10:35 AM 60.3°F15.7°C 48.0°F8.9°C 64% Calm Calm -- 29.46 in997.6 mb 39.21 in995.9 mm 0.00 in0.0 mm 13.63 in346.2 mm
10:30 AM 59.2°F15.1°C 46.2°F7.9°C 62% Calm Calm -- 29.46 in997.6 mb 39.21 in995.9 mm 0.00 in0.0 mm 13.63 in346.2 mm
10:25 AM 60.1°F15.6°C 47.0°F8.3°C 62% Calm Calm -- 29.46 in997.6 mb 39.21 in995.9 mm 0.00 in0.0 mm 13.63 in346.2 mm
10:20 AM 59.5°F15.3°C 47.4°F8.6°C 64% Calm Calm -- 29.46 in997.6 mb 39.21 in995.9 mm 0.00 in0.0 mm 13.63 in346.2 mm
10:15 AM 59.2°F15.1°C 46.6°F8.1°C 63% Calm Calm -- 29.47 in998.0 mb 39.21 in995.9 mm 0.00 in0.0 mm 13.63 in346.2 mm
10:10 AM 59.2°F15.1°C 47.0°F8.3°C 64% Calm Calm -- 29.47 in998.0 mb 39.21 in995.9 mm 0.00 in0.0 mm 13.63 in346.2 mm
10:05 AM 58.5°F14.7°C 47.6°F8.7°C 67% Calm Calm -- 29.46 in997.6 mb 39.21 in995.9 mm 0.00 in0.0 mm 13.63 in346.2 mm
10:00 AM 58.3°F14.6°C 47.4°F8.6°C 67% Calm Calm -- 29.46 in997.6 mb 39.21 in995.9 mm 0.00 in0.0 mm 13.63 in346.2 mm
09:55 AM 57.4°F14.1°C 46.5°F8.1°C 67% Calm Calm -- 29.46 in997.6 mb 39.21 in995.9 mm 0.00 in0.0 mm 13.63 in346.2 mm
09:50 AM 57.4°F14.1°C 46.9°F8.3°C 68% Calm Calm -- 29.48 in998.3 mb 39.21 in995.9 mm 0.00 in0.0 mm 13.63 in346.2 mm
09:45 AM 56.8°F13.8°C 47.5°F8.6°C 71% Calm Calm -- 29.47 in998.0 mb 39.21 in995.9 mm 0.00 in0.0 mm 13.63 in346.2 mm
09:40 AM 56.1°F13.4°C 46.1°F7.8°C 69% Calm Calm -- 29.48 in998.3 mb 39.21 in995.9 mm 0.00 in0.0 mm 13.28 in337.3 mm
09:35 AM 57.0°F13.9°C 46.2°F7.9°C 67% Calm Calm -- 29.46 in997.6 mb 39.21 in995.9 mm 0.00 in0.0 mm 13.28 in337.3 mm
09:30 AM 57.4°F14.1°C 46.1°F7.8°C 66% Calm Calm -- 29.47 in998.0 mb 39.21 in995.9 mm 0.00 in0.0 mm 13.28 in337.3 mm
09:25 AM 57.4°F14.1°C 46.9°F8.3°C 68% Calm Calm -- 29.47 in998.0 mb 39.21 in995.9 mm 0.00 in0.0 mm 12.93 in328.4 mm
09:20 AM 56.8°F13.8°C 47.5°F8.6°C 71% Calm Calm -- 29.47 in998.0 mb 39.21 in995.9 mm 0.00 in0.0 mm 12.93 in328.4 mm
09:15 AM 55.9°F13.3°C 46.3°F7.9°C 70% Calm Calm -- 29.47 in998.0 mb 39.21 in995.9 mm 0.00 in0.0 mm 12.93 in328.4 mm
09:10 AM 56.1°F13.4°C 46.1°F7.8°C 69% Calm Calm -- 29.47 in998.0 mb 39.21 in995.9 mm 0.00 in0.0 mm 12.93 in328.4 mm
09:05 AM 56.7°F13.7°C 47.4°F8.6°C 71% Calm Calm -- 29.47 in998.0 mb 39.21 in995.9 mm 0.00 in0.0 mm 12.93 in328.4 mm
09:00 AM 56.3°F13.5°C 47.4°F8.6°C 72% Calm Calm -- 29.47 in998.0 mb 39.21 in995.9 mm 0.00 in0.0 mm 12.93 in328.4 mm
08:55 AM 55.8°F13.2°C 46.9°F8.3°C 72% Calm Calm -- 29.47 in998.0 mb 39.21 in995.9 mm 0.00 in0.0 mm 12.93 in328.4 mm
08:50 AM 55.4°F13.0°C 46.5°F8.1°C 72% Calm Calm -- 29.48 in998.3 mb 39.21 in995.9 mm 0.00 in0.0 mm 12.93 in328.4 mm
08:45 AM 55.4°F13.0°C 46.5°F8.1°C 72% Calm Calm -- 29.48 in998.3 mb 39.21 in995.9 mm 0.00 in0.0 mm 12.93 in328.4 mm
08:40 AM 55.2°F12.9°C 46.0°F7.8°C 71% Calm Calm -- 29.47 in998.0 mb 39.21 in995.9 mm 12.24 in310.9 mm 12.93 in328.4 mm
08:35 AM 55.0°F12.8°C 45.8°F7.7°C 71% Calm Calm -- 29.48 in998.3 mb 38.19 in970.0 mm 24.60 in624.8 mm 12.93 in328.4 mm
08:30 AM 55.4°F13.0°C 46.2°F7.9°C 71% Calm Calm -- 29.48 in998.3 mb 36.14 in918.0 mm 41.40 in1051.6 mm 12.93 in328.4 mm
08:25 AM 55.9°F13.3°C 44.4°F6.9°C 65% Calm Calm -- 29.47 in998.0 mb 32.69 in830.3 mm 106.44 in2703.6 mm 12.93 in328.4 mm
08:20 AM 58.8°F14.9°C 46.7°F8.2°C 64% Calm Calm -- 29.47 in998.0 mb 23.82 in605.0 mm 2.76 in70.1 mm 12.93 in328.4 mm
08:15 AM 60.8°F16.0°C 49.4°F9.7°C 66% Calm Calm -- 29.48 in998.3 mb 23.59 in599.2 mm 0.00 in0.0 mm 12.93 in328.4 mm
08:10 AM 58.6°F14.8°C 50.4°F10.2°C 74% Calm Calm -- 29.47 in998.0 mb 23.94 in608.1 mm 0.00 in0.0 mm 12.80 in325.1 mm
08:05 AM 57.4°F14.1°C 49.9°F9.9°C 76% Calm Calm -- 29.48 in998.3 mb 25.46 in646.7 mm 0.00 in0.0 mm 12.66 in321.6 mm
08:00 AM 56.1°F13.4°C 51.7°F10.9°C 85% Calm Calm -- 29.48 in998.3 mb 26.44 in671.6 mm 0.00 in0.0 mm 11.73 in297.9 mm
07:55 AM 54.5°F12.5°C 51.3°F10.7°C 89% Calm Calm -- 29.48 in998.3 mb 28.88 in733.6 mm 0.00 in0.0 mm 11.15 in283.2 mm
07:50 AM 51.1°F10.6°C 48.3°F9.1°C 90% Calm Calm -- 29.48 in998.3 mb 29.11 in739.4 mm 0.00 in0.0 mm 10.30 in261.6 mm
07:45 AM 49.1°F9.5°C 46.3°F7.9°C 90% Calm Calm -- 29.48 in998.3 mb 29.68 in753.9 mm 23.64 in600.5 mm 9.27 in235.5 mm
07:40 AM 49.8°F9.9°C 46.7°F8.2°C 89% Calm Calm -- 29.49 in998.6 mb 27.71 in703.8 mm 21.84 in554.7 mm 9.27 in235.5 mm
07:35 AM 49.8°F9.9°C 46.4°F8.0°C 88% Calm Calm -- 29.48 in998.3 mb 25.89 in657.6 mm 31.20 in792.5 mm 9.19 in233.4 mm
07:30 AM 50.0°F10.0°C 46.0°F7.8°C 86% Calm Calm -- 29.48 in998.3 mb 23.29 in591.6 mm 15.60 in396.2 mm 9.19 in233.4 mm
07:25 AM 50.0°F10.0°C 46.0°F7.8°C 86% Calm Calm -- 29.49 in998.6 mb 21.99 in558.5 mm 5.88 in149.4 mm 9.19 in233.4 mm
07:20 AM 50.2°F10.1°C 46.2°F7.9°C 86% Calm Calm -- 29.49 in998.6 mb 21.50 in546.1 mm 38.28 in972.3 mm 9.19 in233.4 mm
07:15 AM 50.4°F10.2°C 46.0°F7.8°C 85% Calm Calm -- 29.49 in998.6 mb 18.31 in465.1 mm 26.52 in673.6 mm 9.19 in233.4 mm
07:10 AM 50.0°F10.0°C 45.4°F7.4°C 84% Calm Calm -- 29.49 in998.6 mb 16.10 in408.9 mm 31.20 in792.5 mm 9.19 in233.4 mm
07:05 AM 50.4°F10.2°C 45.4°F7.4°C 83% Calm Calm -- 29.49 in998.6 mb 13.50 in342.9 mm 41.52 in1054.6 mm 8.47 in215.1 mm
07:00 AM 51.1°F10.6°C 45.8°F7.7°C 82% Calm Calm -- 29.48 in998.3 mb 10.04 in255.0 mm 3.64 in92.5 mm 8.47 in215.1 mm
06:55 AM 51.4°F10.8°C 45.8°F7.7°C 81% Calm Calm -- 29.49 in998.6 mb 6.70 in170.2 mm 28.80 in731.5 mm 8.47 in215.1 mm
06:50 AM 52.3°F11.3°C 46.7°F8.2°C 81% Calm Calm -- 29.49 in998.6 mb 4.30 in109.2 mm 25.56 in649.2 mm 7.76 in197.1 mm
06:45 AM 51.8°F11.0°C 46.2°F7.9°C 81% Calm Calm -- 29.49 in998.6 mb 2.17 in55.1 mm 13.80 in350.5 mm 7.76 in197.1 mm
06:40 AM 50.4°F10.2°C 44.4°F6.9°C 80% Calm Calm -- 29.49 in998.6 mb 1.02 in25.9 mm 0.00 in0.0 mm 7.59 in192.8 mm
06:35 AM 50.7°F10.4°C 43.1°F6.2°C 75% Calm Calm -- 29.49 in998.6 mb 1.02 in25.9 mm 0.00 in0.0 mm 7.59 in192.8 mm
06:30 AM 52.7°F11.5°C 43.6°F6.4°C 71% Calm Calm -- 29.49 in998.6 mb 1.02 in25.9 mm 12.24 in310.9 mm 7.59 in192.8 mm
06:25 AM 55.2°F12.9°C 44.9°F7.2°C 68% Calm Calm -- 29.50 in999.0 mb 0.00 in0.0 mm 0.00 in0.0 mm 7.36 in186.9 mm
06:20 AM 56.8°F13.8°C 46.0°F7.8°C 67% Calm Calm -- 29.50 in999.0 mb 0.00 in0.0 mm 0.00 in0.0 mm 7.36 in186.9 mm
06:15 AM 58.6°F14.8°C 46.9°F8.3°C 65% Calm Calm -- 29.49 in998.6 mb 0.00 in0.0 mm 0.00 in0.0 mm 7.36 in186.9 mm
06:10 AM 58.6°F14.8°C 46.9°F8.3°C 65% Calm Calm -- 29.50 in999.0 mb 0.00 in0.0 mm 0.00 in0.0 mm 7.36 in186.9 mm
06:05 AM 57.6°F14.2°C 45.9°F7.7°C 65% Calm Calm -- 29.50 in999.0 mb 0.00 in0.0 mm 0.00 in0.0 mm 7.36 in186.9 mm
06:00 AM 60.3°F15.7°C 50.5°F10.3°C 70% Calm Calm -- 29.50 in999.0 mb 0.00 in0.0 mm 0.00 in0.0 mm 7.36 in186.9 mm
05:55 AM 60.3°F15.7°C 51.2°F10.7°C 72% Calm Calm -- 29.50 in999.0 mb 0.00 in0.0 mm 0.00 in0.0 mm 7.36 in186.9 mm
05:50 AM 59.2°F15.1°C 51.6°F10.9°C 76% Calm Calm -- 29.50 in999.0 mb 0.00 in0.0 mm 0.00 in0.0 mm 7.36 in186.9 mm
05:45 AM 57.6°F14.2°C 52.1°F11.2°C 82% Calm Calm -- 29.50 in999.0 mb 0.00 in0.0 mm 0.00 in0.0 mm 7.36 in186.9 mm
05:40 AM 55.2°F12.9°C 50.8°F10.4°C 85% Calm Calm -- 29.50 in999.0 mb 0.00 in0.0 mm 0.00 in0.0 mm 7.36 in186.9 mm
05:35 AM 53.4°F11.9°C 49.7°F9.8°C 87% Calm Calm -- 29.50 in999.0 mb 0.00 in0.0 mm 0.00 in0.0 mm 7.36 in186.9 mm
05:30 AM 52.7°F11.5°C 49.6°F9.8°C 89% Calm Calm -- 29.51 in999.3 mb 0.00 in0.0 mm 0.00 in0.0 mm 7.36 in186.9 mm
05:25 AM 50.7°F10.4°C 48.2°F9.0°C 91% Calm Calm -- 29.50 in999.0 mb 0.00 in0.0 mm 0.00 in0.0 mm 7.36 in186.9 mm
05:20 AM 48.7°F9.3°C 46.5°F8.1°C 92% Calm Calm -- 29.50 in999.0 mb 0.00 in0.0 mm 0.00 in0.0 mm 7.36 in186.9 mm
05:15 AM 48.0°F8.9°C 46.4°F8.0°C 94% Calm Calm -- 29.50 in999.0 mb 0.00 in0.0 mm 0.00 in0.0 mm 7.36 in186.9 mm
05:10 AM 48.6°F9.2°C 46.9°F8.3°C 94% Calm Calm -- 29.50 in999.0 mb 0.00 in0.0 mm 0.00 in0.0 mm 7.36 in186.9 mm
05:05 AM 48.6°F9.2°C 47.2°F8.4°C 95% Calm Calm -- 29.50 in999.0 mb 0.00 in0.0 mm 0.00 in0.0 mm 7.36 in186.9 mm
05:00 AM 47.8°F8.8°C 47.0°F8.3°C 97% Calm Calm -- 29.50 in999.0 mb 0.00 in0.0 mm 0.00 in0.0 mm 7.36 in186.9 mm
04:55 AM 46.9°F8.3°C 46.1°F7.8°C 97% Calm Calm -- 29.50 in999.0 mb 0.00 in0.0 mm 0.00 in0.0 mm 7.36 in186.9 mm
04:50 AM 46.9°F8.3°C 46.4°F8.0°C 98% Calm Calm -- 29.50 in999.0 mb 1.75 in44.5 mm 0.00 in0.0 mm 7.36 in186.9 mm
04:45 AM 47.7°F8.7°C 47.1°F8.4°C 98% Calm Calm -- 29.51 in999.3 mb 4.11 in104.4 mm 0.00 in0.0 mm 7.36 in186.9 mm
04:40 AM 47.3°F8.5°C 47.0°F8.3°C 99% Calm Calm -- 29.51 in999.3 mb 4.28 in108.7 mm 0.00 in0.0 mm 7.36 in186.9 mm
04:35 AM 45.3°F7.4°C 44.5°F6.9°C 97% Calm Calm -- 29.51 in999.3 mb 4.28 in108.7 mm 0.00 in0.0 mm 7.36 in186.9 mm
04:30 AM 44.4°F6.9°C 43.9°F6.6°C 98% Calm Calm -- 29.50 in999.0 mb 4.28 in108.7 mm 0.00 in0.0 mm 7.36 in186.9 mm
04:25 AM 44.4°F6.9°C 43.9°F6.6°C 98% Calm Calm -- 29.51 in999.3 mb 4.28 in108.7 mm 0.00 in0.0 mm 7.36 in186.9 mm
04:20 AM 44.4°F6.9°C 43.9°F6.6°C 98% Calm Calm -- 29.51 in999.3 mb 4.28 in108.7 mm 0.00 in0.0 mm 7.36 in186.9 mm
04:15 AM 44.4°F6.9°C 43.9°F6.6°C 98% Calm Calm -- 29.50 in999.0 mb 4.28 in108.7 mm 0.00 in0.0 mm 7.36 in186.9 mm
04:10 AM 44.4°F6.9°C 43.9°F6.6°C 98% Calm Calm -- 29.50 in999.0 mb 4.28 in108.7 mm 0.00 in0.0 mm 7.36 in186.9 mm
04:05 AM 44.4°F6.9°C 43.9°F6.6°C 98% Calm Calm -- 29.51 in999.3 mb 4.28 in108.7 mm 0.00 in0.0 mm 7.36 in186.9 mm
04:00 AM 44.4°F6.9°C 43.9°F6.6°C 98% Calm Calm -- 29.50 in999.0 mb 4.28 in108.7 mm 0.00 in0.0 mm 7.36 in186.9 mm
03:55 AM 44.4°F6.9°C 43.9°F6.6°C 98% Calm Calm -- 29.51 in999.3 mb 4.28 in108.7 mm 24.96 in634.0 mm 7.36 in186.9 mm
03:50 AM 44.4°F6.9°C 43.9°F6.6°C 98% Calm Calm -- 29.50 in999.0 mb 2.20 in55.9 mm 24.36 in618.7 mm 6.69 in169.9 mm
03:45 AM 44.4°F6.9°C 43.9°F6.6°C 98% Calm Calm -- 29.51 in999.3 mb 0.17 in4.3 mm 2.04 in51.8 mm 5.63 in143.0 mm
03:40 AM 44.4°F6.9°C 43.9°F6.6°C 98% Calm Calm -- 29.51 in999.3 mb 0.00 in0.0 mm 0.00 in0.0 mm 5.47 in138.9 mm
03:35 AM 44.4°F6.9°C 43.9°F6.6°C 98% Calm Calm -- 29.51 in999.3 mb 0.00 in0.0 mm 0.00 in0.0 mm 5.47 in138.9 mm
03:30 AM 43.7°F6.5°C 43.2°F6.2°C 98% Calm Calm -- 29.51 in999.3 mb 0.00 in0.0 mm 0.00 in0.0 mm 5.47 in138.9 mm
03:25 AM 43.7°F6.5°C 43.2°F6.2°C 98% Calm Calm -- 29.51 in999.3 mb 0.00 in0.0 mm 0.00 in0.0 mm 5.47 in138.9 mm
03:20 AM 43.7°F6.5°C 43.2°F6.2°C 98% Calm Calm -- 29.51 in999.3 mb 0.00 in0.0 mm 0.00 in0.0 mm 5.47 in138.9 mm
03:15 AM 43.7°F6.5°C 43.2°F6.2°C 98% Calm Calm -- 29.51 in999.3 mb 0.00 in0.0 mm 0.00 in0.0 mm 5.47 in138.9 mm
03:10 AM 43.7°F6.5°C 43.2°F6.2°C 98% Calm Calm -- 29.52 in999.7 mb 0.00 in0.0 mm 0.00 in0.0 mm 5.47 in138.9 mm
03:05 AM 43.7°F6.5°C 43.2°F6.2°C 98% Calm Calm -- 29.51 in999.3 mb 0.00 in0.0 mm 0.00 in0.0 mm 5.47 in138.9 mm
03:00 AM 43.7°F6.5°C 43.2°F6.2°C 98% Calm Calm -- 29.52 in999.7 mb 0.00 in0.0 mm 0.00 in0.0 mm 5.47 in138.9 mm
02:55 AM 43.7°F6.5°C 43.2°F6.2°C 98% Calm Calm -- 29.52 in999.7 mb 0.00 in0.0 mm 0.00 in0.0 mm 5.47 in138.9 mm
02:50 AM 43.7°F6.5°C 43.2°F6.2°C 98% Calm Calm -- 29.52 in999.7 mb 0.00 in0.0 mm 0.00 in0.0 mm 5.47 in138.9 mm
02:45 AM 43.7°F6.5°C 43.2°F6.2°C 98% Calm Calm -- 29.52 in999.7 mb 0.00 in0.0 mm 0.00 in0.0 mm 5.47 in138.9 mm
02:40 AM 43.7°F6.5°C 43.2°F6.2°C 98% Calm Calm -- 29.52 in999.7 mb 0.00 in0.0 mm 0.00 in0.0 mm 5.47 in138.9 mm
02:35 AM 43.7°F6.5°C 43.2°F6.2°C 98% Calm Calm -- 29.52 in999.7 mb 0.00 in0.0 mm 0.00 in0.0 mm 5.47 in138.9 mm
02:30 AM 43.3°F6.3°C 42.8°F6.0°C 98% Calm Calm -- 29.52 in999.7 mb 0.00 in0.0 mm 0.00 in0.0 mm 5.47 in138.9 mm
02:25 AM 43.5°F6.4°C 43.0°F6.1°C 98% Calm Calm -- 29.51 in999.3 mb 0.00 in0.0 mm 0.00 in0.0 mm 5.47 in138.9 mm
02:20 AM 43.9°F6.6°C 43.4°F6.3°C 98% Calm Calm -- 29.51 in999.3 mb 0.00 in0.0 mm 0.00 in0.0 mm 5.47 in138.9 mm
02:15 AM 43.9°F6.6°C 43.4°F6.3°C 98% Calm Calm -- 29.51 in999.3 mb 0.00 in0.0 mm 0.00 in0.0 mm 5.47 in138.9 mm
02:10 AM 43.7°F6.5°C 43.2°F6.2°C 98% Calm Calm -- 29.52 in999.7 mb 0.00 in0.0 mm 0.00 in0.0 mm 5.47 in138.9 mm
02:05 AM 43.7°F6.5°C 43.2°F6.2°C 98% Calm Calm -- 29.51 in999.3 mb 0.00 in0.0 mm 0.00 in0.0 mm 5.47 in138.9 mm
02:00 AM 43.7°F6.5°C 43.2°F6.2°C 98% Calm Calm -- 29.51 in999.3 mb 0.00 in0.0 mm 0.00 in0.0 mm 5.47 in138.9 mm
01:55 AM 43.7°F6.5°C 43.2°F6.2°C 98% Calm Calm -- 29.52 in999.7 mb 0.00 in0.0 mm 0.00 in0.0 mm 5.47 in138.9 mm
01:50 AM 43.7°F6.5°C 43.2°F6.2°C 98% Calm Calm -- 29.52 in999.7 mb 0.00 in0.0 mm 0.00 in0.0 mm 5.47 in138.9 mm
01:45 AM 43.9°F6.6°C 43.4°F6.3°C 98% Calm Calm -- 29.52 in999.7 mb 0.81 in20.6 mm 0.00 in0.0 mm 5.47 in138.9 mm
01:40 AM 43.5°F6.4°C 43.0°F6.1°C 98% Calm Calm -- 29.52 in999.7 mb 2.43 in61.7 mm 0.00 in0.0 mm 5.47 in138.9 mm
01:35 AM 43.9°F6.6°C 43.4°F6.3°C 98% Calm Calm -- 29.53 in1000.0 mb 3.69 in93.7 mm 0.00 in0.0 mm 5.47 in138.9 mm
01:30 AM 43.9°F6.6°C 43.4°F6.3°C 98% Calm Calm -- 29.52 in999.7 mb 5.87 in149.1 mm 0.00 in0.0 mm 5.47 in138.9 mm
01:25 AM 43.9°F6.6°C 43.4°F6.3°C 98% Calm Calm -- 29.52 in999.7 mb 6.86 in174.2 mm 0.00 in0.0 mm 5.47 in138.9 mm
01:20 AM 43.7°F6.5°C 43.2°F6.2°C 98% Calm Calm -- 29.52 in999.7 mb 9.35 in237.5 mm 0.00 in0.0 mm 5.47 in138.9 mm
01:15 AM 43.9°F6.6°C 43.4°F6.3°C 98% Calm Calm -- 29.52 in999.7 mb 11.30 in287.0 mm 0.00 in0.0 mm 5.47 in138.9 mm
01:10 AM 43.9°F6.6°C 43.4°F6.3°C 98% Calm Calm -- 29.52 in999.7 mb 13.48 in342.4 mm 0.00 in0.0 mm 5.47 in138.9 mm
01:05 AM 43.9°F6.6°C 43.4°F6.3°C 98% Calm Calm -- 29.52 in999.7 mb 15.58 in395.7 mm 0.00 in0.0 mm 5.47 in138.9 mm
01:00 AM 43.9°F6.6°C 43.4°F6.3°C 98% Calm Calm -- 29.52 in999.7 mb 17.65 in448.3 mm 0.00 in0.0 mm 5.47 in138.9 mm
12:55 AM 43.9°F6.6°C 43.4°F6.3°C 98% Calm Calm -- 29.52 in999.7 mb 20.29 in515.4 mm 0.00 in0.0 mm 5.47 in138.9 mm
12:50 AM 43.9°F6.6°C 43.4°F6.3°C 98% Calm Calm -- 29.52 in999.7 mb 22.87 in580.9 mm 0.00 in0.0 mm 5.47 in138.9 mm
12:45 AM 43.9°F6.6°C 43.1°F6.2°C 97% Calm Calm -- 29.52 in999.7 mb 26.20 in665.5 mm 0.00 in0.0 mm 5.47 in138.9 mm
12:40 AM 43.9°F6.6°C 43.1°F6.2°C 97% Calm Calm -- 29.52 in999.7 mb 27.73 in704.3 mm 0.00 in0.0 mm 4.56 in115.8 mm
12:35 AM 44.6°F7.0°C 43.5°F6.4°C 96% Calm Calm -- 29.52 in999.7 mb 31.10 in789.9 mm 0.00 in0.0 mm 4.09 in103.9 mm
12:30 AM 44.6°F7.0°C 43.5°F6.4°C 96% Calm Calm -- 29.52 in999.7 mb 31.82 in808.2 mm 0.00 in0.0 mm 3.80 in96.5 mm
12:25 AM 44.6°F7.0°C 43.5°F6.4°C 96% Calm Calm -- 29.52 in999.7 mb 34.42 in874.3 mm 6.60 in167.6 mm 3.78 in96.0 mm
12:20 AM 44.6°F7.0°C 43.5°F6.4°C 96% Calm Calm -- 29.52 in999.7 mb 33.87 in860.3 mm 0.00 in0.0 mm 3.44 in87.4 mm
12:15 AM 44.8°F7.1°C 43.4°F6.3°C 95% Calm Calm -- 29.52 in999.7 mb 36.39 in924.3 mm 0.00 in0.0 mm 2.57 in65.3 mm
12:10 AM 44.8°F7.1°C 43.4°F6.3°C 95% Calm Calm -- 29.52 in999.7 mb 38.39 in975.1 mm 0.00 in0.0 mm 1.95 in49.5 mm
12:05 AM 44.8°F7.1°C 43.4°F6.3°C 95% Calm Calm -- 29.53 in1000.0 mb 39.32 in998.7 mm 6.00 in152.4 mm 1.36 in34.5 mm
12:00 AM 45.0°F7.2°C 43.6°F6.4°C 95% Calm Calm -- 29.51 in999.3 mb 38.82 in986.0 mm 0.00 in0.0 mm 1.17 in29.7 mm